UAE502 OMDB-VABB
Flight info
| Callsign | UAE502 |
|---|---|
| Flight time | N/A |
| Altitude | 41000 |
| Route | IVURO DCT KUSEN A791 LALDO B505 NADSO A777 VAXIM P307 PARAR N571 SUGID DCT KETOR KETOR2A |
| Aircraft | A359/H-SDE2E3GHIJ3J4J5LM1ORWXY/LB1D1 |
Departure
| Time | N/A |
|---|---|
| Airport | Dubai International Airport (OMDB) |
Arrival
| Time | 2026-05-05 13:19 |
|---|---|
| Airport | Chhatrapati Shivaji Maharaj International Airport (VABB) |
| Time | Latitude | Longitude | Altitude | Speed | Heading |
|---|---|---|---|---|---|
| 2026-05-05 12:30 | 20.13671 | 68.12083 | 40845 ft | 500 kts | 116° |
| 2026-05-05 12:30 | 20.10574 | 68.18647 | 40826 ft | 500 kts | 116° |
| 2026-05-05 12:31 | 20.07446 | 68.25268 | 40842 ft | 500 kts | 116° |
| 2026-05-05 12:31 | 20.04319 | 68.31879 | 40843 ft | 500 kts | 116° |
| 2026-05-05 12:32 | 20.01191 | 68.38485 | 40849 ft | 500 kts | 116° |
| 2026-05-05 12:32 | 19.98063 | 68.45083 | 40846 ft | 500 kts | 116° |
| 2026-05-05 12:33 | 19.94951 | 68.51640 | 40841 ft | 500 kts | 116° |
| 2026-05-05 12:33 | 19.91816 | 68.58237 | 40835 ft | 500 kts | 116° |
| 2026-05-05 12:34 | 19.88680 | 68.64829 | 40840 ft | 500 kts | 116° |
| 2026-05-05 12:34 | 19.85538 | 68.71426 | 40843 ft | 500 kts | 116° |
| 2026-05-05 12:35 | 19.82398 | 68.78011 | 40833 ft | 500 kts | 116° |
| 2026-05-05 12:35 | 19.79278 | 68.84546 | 40848 ft | 500 kts | 116° |
| 2026-05-05 12:36 | 19.76129 | 68.91135 | 40840 ft | 500 kts | 116° |
| 2026-05-05 12:36 | 19.72983 | 68.97710 | 40839 ft | 500 kts | 116° |
| 2026-05-05 12:37 | 19.69832 | 69.04288 | 40835 ft | 500 kts | 116° |
| 2026-05-05 12:37 | 19.66679 | 69.10861 | 40845 ft | 500 kts | 116° |
| 2026-05-05 12:38 | 19.63545 | 69.17389 | 40832 ft | 500 kts | 116° |
| 2026-05-05 12:38 | 19.60379 | 69.23975 | 40844 ft | 500 kts | 116° |
| 2026-05-05 12:39 | 19.57213 | 69.30553 | 40834 ft | 501 kts | 116° |
| 2026-05-05 12:39 | 19.54054 | 69.37117 | 40842 ft | 501 kts | 116° |
| 2026-05-05 12:40 | 19.50930 | 69.43664 | 40844 ft | 501 kts | 116° |
| 2026-05-05 12:40 | 19.47780 | 69.50254 | 40845 ft | 501 kts | 116° |
| 2026-05-05 12:41 | 19.44625 | 69.56845 | 40846 ft | 501 kts | 116° |
| 2026-05-05 12:41 | 19.41470 | 69.63429 | 40841 ft | 501 kts | 116° |
| 2026-05-05 12:42 | 19.38312 | 69.70009 | 40843 ft | 501 kts | 116° |
| 2026-05-05 12:42 | 19.35171 | 69.76547 | 40846 ft | 501 kts | 116° |
| 2026-05-05 12:43 | 19.32014 | 69.83111 | 40843 ft | 501 kts | 116° |
| 2026-05-05 12:43 | 19.28844 | 69.89695 | 40846 ft | 501 kts | 116° |
| 2026-05-05 12:44 | 19.25674 | 69.96271 | 40844 ft | 501 kts | 116° |
| 2026-05-05 12:44 | 19.22523 | 70.02800 | 40847 ft | 502 kts | 116° |
| 2026-05-05 12:45 | 19.19346 | 70.09376 | 40846 ft | 502 kts | 116° |
| 2026-05-05 12:45 | 19.16167 | 70.15948 | 40843 ft | 502 kts | 116° |
| 2026-05-05 12:46 | 19.13069 | 70.22567 | 40837 ft | 501 kts | 111° |
| 2026-05-05 12:46 | 19.10491 | 70.29405 | 40846 ft | 501 kts | 110° |
| 2026-05-05 12:47 | 19.07957 | 70.36201 | 40845 ft | 501 kts | 110° |
| 2026-05-05 12:47 | 19.05390 | 70.43057 | 40845 ft | 501 kts | 110° |
| 2026-05-05 12:48 | 19.02819 | 70.49907 | 40846 ft | 501 kts | 110° |
| 2026-05-05 12:48 | 19.00248 | 70.56744 | 40836 ft | 501 kts | 110° |
| 2026-05-05 12:49 | 18.97692 | 70.63534 | 40849 ft | 501 kts | 110° |
| 2026-05-05 12:49 | 18.95112 | 70.70379 | 40843 ft | 501 kts | 110° |
| 2026-05-05 12:50 | 18.92535 | 70.77208 | 40842 ft | 501 kts | 111° |
| 2026-05-05 12:50 | 18.89965 | 70.84007 | 40845 ft | 501 kts | 111° |
| 2026-05-05 12:51 | 18.87380 | 70.90839 | 40847 ft | 501 kts | 111° |
| 2026-05-05 12:51 | 18.84793 | 70.97665 | 40842 ft | 501 kts | 111° |
| 2026-05-05 12:52 | 18.82201 | 71.04498 | 40840 ft | 501 kts | 111° |
| 2026-05-05 12:52 | 18.79609 | 71.11321 | 40845 ft | 501 kts | 111° |
| 2026-05-05 12:53 | 18.77031 | 71.18100 | 40845 ft | 501 kts | 111° |
| 2026-05-05 12:53 | 18.74433 | 71.24922 | 40844 ft | 501 kts | 111° |
| 2026-05-05 12:54 | 18.70538 | 71.35135 | 40741 ft | 498 kts | 111° |
| 2026-05-05 12:54 | 18.69244 | 71.38522 | 40515 ft | 498 kts | 111° |
| 2026-05-05 12:55 | 18.67961 | 71.41881 | 40269 ft | 501 kts | 111° |
| 2026-05-05 12:55 | 18.66655 | 71.45298 | 40013 ft | 503 kts | 111° |
| 2026-05-05 12:55 | 18.65345 | 71.48722 | 39780 ft | 505 kts | 111° |
| 2026-05-05 12:55 | 18.64030 | 71.52157 | 39541 ft | 506 kts | 111° |
| 2026-05-05 12:56 | 18.62711 | 71.55599 | 39310 ft | 507 kts | 111° |
| 2026-05-05 12:56 | 18.61392 | 71.59040 | 39076 ft | 508 kts | 111° |
| 2026-05-05 12:56 | 18.60065 | 71.62499 | 38859 ft | 509 kts | 111° |
| 2026-05-05 12:56 | 18.58736 | 71.65962 | 38620 ft | 510 kts | 111° |
| 2026-05-05 12:57 | 18.57405 | 71.69427 | 38366 ft | 510 kts | 111° |
| 2026-05-05 12:57 | 18.56090 | 71.72849 | 38106 ft | 511 kts | 111° |
| 2026-05-05 12:57 | 18.54757 | 71.76316 | 37839 ft | 512 kts | 111° |
| 2026-05-05 12:57 | 18.53415 | 71.79804 | 37571 ft | 513 kts | 111° |
| 2026-05-05 12:58 | 18.52072 | 71.83293 | 37302 ft | 514 kts | 111° |
| 2026-05-05 12:58 | 18.50728 | 71.86782 | 37075 ft | 515 kts | 111° |
| 2026-05-05 12:58 | 18.49380 | 71.90278 | 36817 ft | 516 kts | 111° |
| 2026-05-05 12:58 | 18.48031 | 71.93776 | 36563 ft | 516 kts | 111° |
| 2026-05-05 12:59 | 18.46675 | 71.97288 | 36314 ft | 517 kts | 111° |
| 2026-05-05 12:59 | 18.45354 | 72.00759 | 36073 ft | 518 kts | 110° |
| 2026-05-05 12:59 | 18.44446 | 72.04419 | 35767 ft | 517 kts | 97° |
| 2026-05-05 13:00 | 18.45167 | 72.11833 | 34389 ft | 514 kts | 68° |
| 2026-05-05 13:00 | 18.46797 | 72.15177 | 33510 ft | 515 kts | 53° |
| 2026-05-05 13:01 | 18.55082 | 72.22222 | 30622 ft | 519 kts | 38° |
| 2026-05-05 13:01 | 18.57773 | 72.24785 | 29400 ft | 526 kts | 42° |
| 2026-05-05 13:01 | 18.60395 | 72.27518 | 28212 ft | 530 kts | 44° |
| 2026-05-05 13:01 | 18.62912 | 72.30247 | 27462 ft | 524 kts | 44° |
| 2026-05-05 13:02 | 18.65410 | 72.33006 | 26722 ft | 517 kts | 44° |
| 2026-05-05 13:02 | 18.67863 | 72.35743 | 26035 ft | 510 kts | 44° |
| 2026-05-05 13:02 | 18.70260 | 72.38436 | 25767 ft | 495 kts | 44° |
| 2026-05-05 13:02 | 18.72555 | 72.41025 | 25322 ft | 476 kts | 44° |
| 2026-05-05 13:03 | 18.74828 | 72.43589 | 24634 ft | 478 kts | 44° |
| 2026-05-05 13:03 | 18.77089 | 72.46143 | 23813 ft | 476 kts | 44° |
| 2026-05-05 13:03 | 18.79337 | 72.48687 | 22842 ft | 469 kts | 44° |
| 2026-05-05 13:03 | 18.81539 | 72.51179 | 21581 ft | 461 kts | 45° |
| 2026-05-05 13:04 | 18.83746 | 72.53676 | 20575 ft | 466 kts | 45° |
| 2026-05-05 13:04 | 18.85949 | 72.56171 | 19816 ft | 461 kts | 45° |
| 2026-05-05 13:04 | 18.88070 | 72.58606 | 19074 ft | 456 kts | 47° |
| 2026-05-05 13:04 | 18.89847 | 72.61365 | 18367 ft | 454 kts | 62° |
| 2026-05-05 13:05 | 18.90837 | 72.64504 | 17583 ft | 452 kts | 78° |
| 2026-05-05 13:05 | 18.91076 | 72.67798 | 16836 ft | 447 kts | 88° |
| 2026-05-05 13:05 | 18.91124 | 72.71050 | 16107 ft | 441 kts | 88° |
| 2026-05-05 13:05 | 18.91194 | 72.74270 | 15398 ft | 435 kts | 88° |
| 2026-05-05 13:06 | 18.91287 | 72.77401 | 14700 ft | 430 kts | 88° |
| 2026-05-05 13:06 | 18.91395 | 72.80532 | 14014 ft | 424 kts | 88° |
| 2026-05-05 13:06 | 18.91509 | 72.83628 | 13309 ft | 419 kts | 88° |
| 2026-05-05 13:06 | 18.91624 | 72.86680 | 12564 ft | 414 kts | 88° |
| 2026-05-05 13:07 | 18.91740 | 72.89704 | 11832 ft | 409 kts | 88° |
| 2026-05-05 13:07 | 18.91856 | 72.92677 | 11124 ft | 404 kts | 88° |
| 2026-05-05 13:07 | 18.91971 | 72.95624 | 10536 ft | 396 kts | 88° |
| 2026-05-05 13:07 | 18.92081 | 72.98455 | 10082 ft | 385 kts | 88° |
| 2026-05-05 13:08 | 18.92189 | 73.01238 | 9631 ft | 375 kts | 89° |
| 2026-05-05 13:08 | 18.92295 | 73.03954 | 9146 ft | 366 kts | 89° |
| 2026-05-05 13:08 | 18.92395 | 73.06606 | 8665 ft | 358 kts | 89° |
| 2026-05-05 13:08 | 18.92496 | 73.09211 | 8173 ft | 351 kts | 89° |
| 2026-05-05 13:09 | 18.92592 | 73.11753 | 7722 ft | 344 kts | 89° |
| 2026-05-05 13:09 | 18.92687 | 73.14260 | 7255 ft | 338 kts | 89° |
| 2026-05-05 13:09 | 18.92782 | 73.16718 | 6799 ft | 332 kts | 88° |
| 2026-05-05 13:09 | 18.92883 | 73.19139 | 6349 ft | 328 kts | 88° |
| 2026-05-05 13:10 | 18.93030 | 73.21521 | 5864 ft | 324 kts | 82° |
| 2026-05-05 13:10 | 18.93569 | 73.23293 | 5500 ft | 320 kts | 60° |
| 2026-05-05 13:10 | 18.95028 | 73.24999 | 5031 ft | 313 kts | 31° |
| 2026-05-05 13:10 | 18.97032 | 73.25759 | 4563 ft | 305 kts | 2° |
| 2026-05-05 13:11 | 18.99074 | 73.25404 | 4084 ft | 297 kts | 332° |
| 2026-05-05 13:11 | 19.00639 | 73.24067 | 3594 ft | 287 kts | 304° |
| 2026-05-05 13:11 | 19.01605 | 73.22257 | 3150 ft | 280 kts | 292° |
| 2026-05-05 13:11 | 19.02413 | 73.20431 | 2937 ft | 267 kts | 294° |
| 2026-05-05 13:12 | 19.03200 | 73.18723 | 2902 ft | 250 kts | 295° |
| 2026-05-05 13:12 | 19.03954 | 73.17137 | 2901 ft | 232 kts | 295° |
| 2026-05-05 13:12 | 19.04657 | 73.15673 | 2890 ft | 214 kts | 295° |
| 2026-05-05 13:12 | 19.05303 | 73.14340 | 2896 ft | 201 kts | 296° |
| 2026-05-05 13:13 | 19.05725 | 73.13476 | 2888 ft | 191 kts | 295° |
| 2026-05-05 13:13 | 19.06056 | 73.12800 | 2893 ft | 186 kts | 295° |
| 2026-05-05 13:13 | 19.06645 | 73.11593 | 2898 ft | 185 kts | 296° |
| 2026-05-05 13:13 | 19.07235 | 73.10380 | 2899 ft | 186 kts | 296° |
| 2026-05-05 13:14 | 19.07829 | 73.09170 | 2893 ft | 185 kts | 296° |
| 2026-05-05 13:14 | 19.08421 | 73.07966 | 2891 ft | 181 kts | 295° |
| 2026-05-05 13:14 | 19.08868 | 73.06815 | 2928 ft | 164 kts | 281° |
| 2026-05-05 13:14 | 19.08986 | 73.05642 | 2916 ft | 160 kts | 270° |
| 2026-05-05 13:15 | 19.08987 | 73.04466 | 2915 ft | 158 kts | 270° |
| 2026-05-05 13:15 | 19.09004 | 73.03278 | 2989 ft | 161 kts | 272° |
| 2026-05-05 13:15 | 19.09019 | 73.02088 | 2690 ft | 164 kts | 269° |
| 2026-05-05 13:15 | 19.08998 | 73.00876 | 2414 ft | 165 kts | 269° |
| 2026-05-05 13:16 | 19.08985 | 72.99674 | 2186 ft | 162 kts | 270° |
| 2026-05-05 13:16 | 19.08977 | 72.98502 | 1980 ft | 157 kts | 270° |
| 2026-05-05 13:16 | 19.08967 | 72.97357 | 1778 ft | 154 kts | 269° |
| 2026-05-05 13:16 | 19.08955 | 72.96267 | 1571 ft | 145 kts | 269° |
| 2026-05-05 13:17 | 19.08945 | 72.95253 | 1394 ft | 130 kts | 269° |
| 2026-05-05 13:17 | 19.08936 | 72.94333 | 1262 ft | 124 kts | 269° |
| 2026-05-05 13:17 | 19.08928 | 72.93424 | 1094 ft | 124 kts | 268° |
| 2026-05-05 13:17 | 19.08918 | 72.92497 | 944 ft | 125 kts | 268° |
| 2026-05-05 13:18 | 19.08909 | 72.91583 | 810 ft | 126 kts | 270° |
| 2026-05-05 13:18 | 19.08899 | 72.90655 | 615 ft | 126 kts | 272° |
| 2026-05-05 13:18 | 19.08891 | 72.89722 | 447 ft | 128 kts | 272° |
| 2026-05-05 13:18 | 19.08882 | 72.88750 | 297 ft | 144 kts | 270° |
| 2026-05-05 13:19 | 19.08875 | 72.87718 | 102 ft | 138 kts | 271° |
| 2026-05-05 13:19 | 19.08872 | 72.86791 | 53 ft | 117 kts | 271° |
| 2026-05-05 13:19 | 19.08862 | 72.86129 | 53 ft | 65 kts | 270° |
| 2026-05-05 13:19 | 19.08858 | 72.85887 | 54 ft | 25 kts | 269° |
| 2026-05-05 13:20 | 19.08867 | 72.85706 | 52 ft | 25 kts | 284° |
| 2026-05-05 13:20 | 19.08919 | 72.85563 | 49 ft | 7 kts | 294° |
| 2026-05-05 13:20 | 19.08921 | 72.85560 | 49 ft | 0 kts | 294° |
| 2026-05-05 13:21 | 19.08923 | 72.85554 | 51 ft | 2 kts | 294° |
| 2026-05-05 13:22 | 19.08932 | 72.85533 | 53 ft | 4 kts | 294° |
| 2026-05-05 13:22 | 19.08949 | 72.85499 | 50 ft | 6 kts | 303° |
| 2026-05-05 13:22 | 19.08987 | 72.85482 | 54 ft | 7 kts | 359° |
| 2026-05-05 13:22 | 19.09021 | 72.85513 | 52 ft | 8 kts | 62° |
| 2026-05-05 13:23 | 19.09029 | 72.85577 | 55 ft | 10 kts | 89° |
| 2026-05-05 13:23 | 19.09027 | 72.85670 | 55 ft | 14 kts | 91° |
| 2026-05-05 13:23 | 19.09029 | 72.85786 | 55 ft | 17 kts | 89° |
| 2026-05-05 13:23 | 19.09031 | 72.85920 | 55 ft | 20 kts | 89° |
| 2026-05-05 13:24 | 19.09033 | 72.86073 | 55 ft | 22 kts | 89° |
| 2026-05-05 13:24 | 19.09036 | 72.86246 | 55 ft | 24 kts | 89° |
| 2026-05-05 13:24 | 19.09072 | 72.86348 | 47 ft | 8 kts | 52° |
| 2026-05-05 13:24 | 19.09075 | 72.86353 | 47 ft | 0 kts | 51° |
| 2026-05-05 13:26 | 19.09084 | 72.86365 | 51 ft | 7 kts | 51° |
| 2026-05-05 13:26 | 19.09133 | 72.86425 | 48 ft | 13 kts | 49° |
| 2026-05-05 13:26 | 19.09199 | 72.86504 | 50 ft | 15 kts | 48° |
| 2026-05-05 13:26 | 19.09276 | 72.86596 | 53 ft | 18 kts | 49° |
| 2026-05-05 13:27 | 19.09355 | 72.86693 | 51 ft | 7 kts | 48° |
| 2026-05-05 13:27 | 19.09382 | 72.86725 | 51 ft | 7 kts | 49° |
| 2026-05-05 13:27 | 19.09383 | 72.86726 | 51 ft | 0 kts | 49° |
| 2026-05-05 13:28 | 19.09384 | 72.86727 | 50 ft | 1 kts | 49° |
| 2026-05-05 13:29 | 19.09403 | 72.86749 | 48 ft | 7 kts | 47° |
| 2026-05-05 13:29 | 19.09436 | 72.86815 | 54 ft | 12 kts | 89° |
| 2026-05-05 13:29 | 19.09423 | 72.86878 | 52 ft | 8 kts | 66° |
| 2026-05-05 13:29 | 19.09450 | 72.86915 | 51 ft | 0 kts | 50° |
| 2026-05-05 13:30 | 19.09452 | 72.86919 | 50 ft | 0 kts | 50° |
| 2026-05-05 13:30 | 19.09454 | 72.86920 | 50 ft | 2 kts | 48° |
| 2026-05-05 13:30 | 19.09478 | 72.86948 | 54 ft | 7 kts | 47° |
| 2026-05-05 13:30 | 19.09514 | 72.86990 | 48 ft | 2 kts | 49° |
| 2026-05-05 13:31 | 19.09529 | 72.87012 | 48 ft | 4 kts | 66° |
| 2026-05-05 13:31 | 19.09524 | 72.87024 | 51 ft | 1 kts | 120° |
| 2026-05-05 13:31 | 19.09521 | 72.87027 | 48 ft | 0 kts | 131° |
| 2026-05-05 13:31 | 19.09515 | 72.87033 | 48 ft | 2 kts | 136° |
| 2026-05-05 13:32 | 19.09496 | 72.87051 | 52 ft | 5 kts | 138° |
| 2026-05-05 13:32 | 19.09476 | 72.87069 | 51 ft | 2 kts | 139° |
| 2026-05-05 13:32 | 19.09475 | 72.87071 | 51 ft | 1 kts | 139° |
| 2026-05-05 13:33 | 19.09474 | 72.87071 | 52 ft | 0 kts | 139° |